THY27M LCEN-LTAI
Flight info
| Callsign | THY27M |
|---|---|
| Flight time | 0h 42m |
| Altitude | 26000 |
| Route | GIRNE DCT DOREN DCT ALNYA |
| Aircraft | A320/M-SDE3FGHIRWY/LB1 |
Departure
| Time | 2026-04-16 12:43 |
|---|---|
| Airport | Ercan International Airport (LCEN) |
Arrival
| Time | 2026-04-16 13:25 |
|---|---|
| Airport | Antalya International Airport (LTAI) |
| Time | Latitude | Longitude | Altitude | Speed | Heading |
|---|---|---|---|---|---|
| 2026-04-16 12:16 | 35.14931 | 33.50454 | 393 ft | 0 kts | 200° |
| 2026-04-16 12:34 | 35.14948 | 33.50462 | 393 ft | 4 kts | 211° |
| 2026-04-16 12:34 | 35.14967 | 33.50483 | 393 ft | 4 kts | 246° |
| 2026-04-16 12:34 | 35.14971 | 33.50514 | 393 ft | 4 kts | 283° |
| 2026-04-16 12:35 | 35.14966 | 33.50534 | 393 ft | 0 kts | 292° |
| 2026-04-16 12:38 | 35.14968 | 33.50527 | 393 ft | 3 kts | 292° |
| 2026-04-16 12:38 | 35.14989 | 33.50466 | 393 ft | 11 kts | 292° |
| 2026-04-16 12:38 | 35.15021 | 33.50370 | 393 ft | 13 kts | 292° |
| 2026-04-16 12:39 | 35.15048 | 33.50287 | 393 ft | 9 kts | 292° |
| 2026-04-16 12:39 | 35.15072 | 33.50216 | 393 ft | 10 kts | 292° |
| 2026-04-16 12:39 | 35.15100 | 33.50132 | 393 ft | 12 kts | 292° |
| 2026-04-16 12:39 | 35.15135 | 33.50026 | 393 ft | 15 kts | 292° |
| 2026-04-16 12:40 | 35.15175 | 33.49906 | 393 ft | 16 kts | 292° |
| 2026-04-16 12:40 | 35.15213 | 33.49791 | 393 ft | 13 kts | 292° |
| 2026-04-16 12:40 | 35.15246 | 33.49701 | 393 ft | 10 kts | 310° |
| 2026-04-16 12:40 | 35.15314 | 33.49704 | 393 ft | 11 kts | 24° |
| 2026-04-16 12:41 | 35.15367 | 33.49733 | 393 ft | 10 kts | 24° |
| 2026-04-16 12:41 | 35.15431 | 33.49769 | 393 ft | 7 kts | 32° |
| 2026-04-16 12:41 | 35.15427 | 33.49817 | 393 ft | 1 kts | 112° |
| 2026-04-16 12:42 | 35.15353 | 33.50046 | 391 ft | 72 kts | 111° |
| 2026-04-16 12:42 | 35.15066 | 33.50918 | 388 ft | 144 kts | 111° |
| 2026-04-16 12:42 | 35.14697 | 33.52191 | 900 ft | 161 kts | 105° |
| 2026-04-16 12:43 | 35.14280 | 33.53436 | 1807 ft | 156 kts | 107° |
| 2026-04-16 12:43 | 35.13941 | 33.54719 | 2513 ft | 166 kts | 91° |
| 2026-04-16 12:43 | 35.14156 | 33.56131 | 2912 ft | 183 kts | 59° |
| 2026-04-16 12:43 | 35.14940 | 33.57482 | 3270 ft | 208 kts | 56° |
| 2026-04-16 12:44 | 35.15760 | 33.59067 | 3752 ft | 233 kts | 52° |
| 2026-04-16 12:44 | 35.17133 | 33.60252 | 4336 ft | 256 kts | 18° |
| 2026-04-16 12:44 | 35.18943 | 33.60351 | 5216 ft | 268 kts | 352° |
| 2026-04-16 12:44 | 35.20753 | 33.59690 | 6190 ft | 274 kts | 342° |
| 2026-04-16 12:45 | 35.22560 | 33.58928 | 7096 ft | 277 kts | 342° |
| 2026-04-16 12:45 | 35.24393 | 33.58143 | 7975 ft | 281 kts | 341° |
| 2026-04-16 12:45 | 35.26252 | 33.57343 | 8839 ft | 286 kts | 341° |
| 2026-04-16 12:45 | 35.28146 | 33.56527 | 9690 ft | 291 kts | 340° |
| 2026-04-16 12:46 | 35.30058 | 33.55702 | 10265 ft | 305 kts | 340° |
| 2026-04-16 12:46 | 35.32138 | 33.54805 | 10516 ft | 328 kts | 340° |
| 2026-04-16 12:46 | 35.34370 | 33.53843 | 10719 ft | 352 kts | 340° |
| 2026-04-16 12:46 | 35.36728 | 33.52827 | 11168 ft | 364 kts | 340° |
| 2026-04-16 12:47 | 35.39129 | 33.51792 | 11856 ft | 368 kts | 340° |
| 2026-04-16 12:47 | 35.41554 | 33.50745 | 12582 ft | 371 kts | 340° |
| 2026-04-16 12:47 | 35.43969 | 33.49704 | 13287 ft | 374 kts | 340° |
| 2026-04-16 12:47 | 35.46439 | 33.48641 | 13955 ft | 378 kts | 340° |
| 2026-04-16 12:48 | 35.48926 | 33.47567 | 14557 ft | 381 kts | 340° |
| 2026-04-16 12:48 | 35.51435 | 33.46478 | 15158 ft | 384 kts | 340° |
| 2026-04-16 12:48 | 35.53963 | 33.45383 | 15748 ft | 387 kts | 340° |
| 2026-04-16 12:48 | 35.56515 | 33.44277 | 16349 ft | 390 kts | 340° |
| 2026-04-16 12:49 | 35.59079 | 33.43163 | 16961 ft | 393 kts | 340° |
| 2026-04-16 12:49 | 35.61665 | 33.42039 | 17580 ft | 396 kts | 340° |
| 2026-04-16 12:49 | 35.64235 | 33.40923 | 18193 ft | 398 kts | 340° |
| 2026-04-16 12:49 | 35.66855 | 33.39784 | 18749 ft | 401 kts | 340° |
| 2026-04-16 12:50 | 35.69498 | 33.38636 | 19286 ft | 404 kts | 340° |
| 2026-04-16 12:50 | 35.72156 | 33.37479 | 19817 ft | 407 kts | 339° |
| 2026-04-16 12:50 | 35.74839 | 33.36306 | 20348 ft | 411 kts | 339° |
| 2026-04-16 12:50 | 35.77542 | 33.35124 | 20849 ft | 414 kts | 339° |
| 2026-04-16 12:51 | 35.80268 | 33.33937 | 21331 ft | 417 kts | 339° |
| 2026-04-16 12:51 | 35.83011 | 33.32741 | 21792 ft | 420 kts | 339° |
| 2026-04-16 12:51 | 35.85774 | 33.31535 | 22256 ft | 423 kts | 339° |
| 2026-04-16 12:51 | 35.88541 | 33.30261 | 22700 ft | 425 kts | 334° |
| 2026-04-16 12:52 | 35.91111 | 33.28545 | 23134 ft | 427 kts | 325° |
| 2026-04-16 12:52 | 35.93458 | 33.26301 | 23543 ft | 428 kts | 316° |
| 2026-04-16 12:52 | 35.95479 | 33.23601 | 23906 ft | 430 kts | 307° |
| 2026-04-16 12:52 | 35.97146 | 33.20532 | 24272 ft | 431 kts | 301° |
| 2026-04-16 12:53 | 35.98734 | 33.17384 | 24653 ft | 433 kts | 301° |
| 2026-04-16 12:53 | 36.00334 | 33.14221 | 25030 ft | 435 kts | 301° |
| 2026-04-16 12:53 | 36.01944 | 33.11040 | 25427 ft | 438 kts | 301° |
| 2026-04-16 12:53 | 36.03562 | 33.07840 | 25778 ft | 440 kts | 301° |
| 2026-04-16 12:54 | 36.05159 | 33.04681 | 25877 ft | 443 kts | 301° |
| 2026-04-16 12:54 | 36.06799 | 33.01434 | 25900 ft | 447 kts | 301° |
| 2026-04-16 12:54 | 36.08448 | 32.98164 | 25899 ft | 449 kts | 301° |
| 2026-04-16 12:54 | 36.10099 | 32.94883 | 25903 ft | 449 kts | 301° |
| 2026-04-16 12:55 | 36.11745 | 32.91601 | 25907 ft | 449 kts | 301° |
| 2026-04-16 12:55 | 36.13390 | 32.88323 | 25911 ft | 449 kts | 301° |
| 2026-04-16 12:55 | 36.15037 | 32.85043 | 25912 ft | 449 kts | 301° |
| 2026-04-16 12:55 | 36.16684 | 32.81764 | 25914 ft | 449 kts | 301° |
| 2026-04-16 12:56 | 36.18328 | 32.78481 | 25921 ft | 449 kts | 301° |
| 2026-04-16 12:56 | 36.19946 | 32.75236 | 25923 ft | 449 kts | 300° |
| 2026-04-16 12:56 | 36.21585 | 32.71948 | 25920 ft | 449 kts | 300° |
| 2026-04-16 12:56 | 36.23222 | 32.68666 | 25919 ft | 448 kts | 300° |
| 2026-04-16 12:57 | 36.24860 | 32.65381 | 25919 ft | 448 kts | 300° |
| 2026-04-16 12:57 | 36.26500 | 32.62092 | 25914 ft | 448 kts | 301° |
| 2026-04-16 12:57 | 36.28135 | 32.58809 | 25913 ft | 448 kts | 300° |
| 2026-04-16 12:57 | 36.29771 | 32.55520 | 25909 ft | 448 kts | 301° |
| 2026-04-16 12:58 | 36.31405 | 32.52232 | 25909 ft | 448 kts | 300° |
| 2026-04-16 12:58 | 36.33039 | 32.48937 | 25903 ft | 448 kts | 300° |
| 2026-04-16 12:58 | 36.34650 | 32.45688 | 25905 ft | 448 kts | 300° |
| 2026-04-16 12:58 | 36.36284 | 32.42389 | 25903 ft | 449 kts | 300° |
| 2026-04-16 12:59 | 36.37918 | 32.39087 | 25902 ft | 449 kts | 300° |
| 2026-04-16 12:59 | 36.39549 | 32.35787 | 25903 ft | 449 kts | 300° |
| 2026-04-16 12:59 | 36.41181 | 32.32484 | 25817 ft | 447 kts | 300° |
| 2026-04-16 13:00 | 36.44429 | 32.25890 | 25497 ft | 442 kts | 300° |
| 2026-04-16 13:00 | 36.45998 | 32.22700 | 25387 ft | 425 kts | 300° |
| 2026-04-16 13:00 | 36.47518 | 32.19692 | 25288 ft | 409 kts | 305° |
| 2026-04-16 13:00 | 36.49497 | 32.17101 | 25202 ft | 424 kts | 319° |
| 2026-04-16 13:01 | 36.51801 | 32.14847 | 25109 ft | 417 kts | 321° |
| 2026-04-16 13:01 | 36.54059 | 32.12676 | 24955 ft | 406 kts | 321° |
| 2026-04-16 13:01 | 36.56283 | 32.10552 | 24684 ft | 401 kts | 321° |
| 2026-04-16 13:01 | 36.58491 | 32.08441 | 24427 ft | 400 kts | 321° |
| 2026-04-16 13:02 | 36.60693 | 32.06329 | 24175 ft | 399 kts | 321° |
| 2026-04-16 13:02 | 36.62887 | 32.04220 | 23921 ft | 398 kts | 321° |
| 2026-04-16 13:02 | 36.65074 | 32.02111 | 23666 ft | 397 kts | 321° |
| 2026-04-16 13:02 | 36.67225 | 32.00036 | 23406 ft | 396 kts | 321° |
| 2026-04-16 13:03 | 36.69398 | 31.97938 | 23103 ft | 394 kts | 321° |
| 2026-04-16 13:03 | 36.71558 | 31.95849 | 22811 ft | 392 kts | 321° |
| 2026-04-16 13:03 | 36.73702 | 31.93771 | 22517 ft | 390 kts | 321° |
| 2026-04-16 13:03 | 36.75837 | 31.91698 | 22223 ft | 388 kts | 321° |
| 2026-04-16 13:04 | 36.77960 | 31.89639 | 21939 ft | 386 kts | 321° |
| 2026-04-16 13:04 | 36.80074 | 31.87591 | 21651 ft | 383 kts | 321° |
| 2026-04-16 13:04 | 36.82126 | 31.85600 | 21377 ft | 381 kts | 321° |
| 2026-04-16 13:04 | 36.84184 | 31.83605 | 21096 ft | 379 kts | 321° |
| 2026-04-16 13:05 | 36.86264 | 31.81591 | 20824 ft | 377 kts | 321° |
| 2026-04-16 13:05 | 36.88324 | 31.79589 | 20544 ft | 375 kts | 321° |
| 2026-04-16 13:05 | 36.90378 | 31.77588 | 20280 ft | 373 kts | 321° |
| 2026-04-16 13:05 | 36.92420 | 31.75603 | 20012 ft | 371 kts | 321° |
| 2026-04-16 13:06 | 36.94447 | 31.73631 | 19746 ft | 369 kts | 321° |
| 2026-04-16 13:06 | 36.96469 | 31.71661 | 19478 ft | 367 kts | 321° |
| 2026-04-16 13:06 | 36.98451 | 31.69725 | 19220 ft | 366 kts | 322° |
| 2026-04-16 13:06 | 37.00451 | 31.67771 | 18960 ft | 364 kts | 322° |
| 2026-04-16 13:07 | 37.02436 | 31.65829 | 18707 ft | 362 kts | 322° |
| 2026-04-16 13:07 | 37.04415 | 31.63895 | 18449 ft | 360 kts | 322° |
| 2026-04-16 13:07 | 37.06382 | 31.61973 | 18188 ft | 358 kts | 322° |
| 2026-04-16 13:07 | 37.08340 | 31.60056 | 17900 ft | 356 kts | 322° |
| 2026-04-16 13:08 | 37.10287 | 31.58150 | 17615 ft | 355 kts | 322° |
| 2026-04-16 13:08 | 37.12227 | 31.56250 | 17317 ft | 353 kts | 322° |
| 2026-04-16 13:08 | 37.14156 | 31.54357 | 17035 ft | 351 kts | 322° |
| 2026-04-16 13:08 | 37.16049 | 31.52500 | 16755 ft | 350 kts | 322° |
| 2026-04-16 13:09 | 37.17962 | 31.50622 | 16479 ft | 349 kts | 323° |
| 2026-04-16 13:09 | 37.19868 | 31.48747 | 16204 ft | 347 kts | 322° |
| 2026-04-16 13:09 | 37.21763 | 31.46882 | 15926 ft | 346 kts | 323° |
| 2026-04-16 13:09 | 37.23657 | 31.45019 | 15648 ft | 345 kts | 323° |
| 2026-04-16 13:10 | 37.25539 | 31.43166 | 15381 ft | 343 kts | 323° |
| 2026-04-16 13:10 | 37.27415 | 31.41322 | 15115 ft | 342 kts | 323° |
| 2026-04-16 13:10 | 37.29257 | 31.39506 | 14849 ft | 341 kts | 323° |
| 2026-04-16 13:10 | 37.31119 | 31.37669 | 14589 ft | 339 kts | 323° |
| 2026-04-16 13:11 | 37.32969 | 31.35844 | 14323 ft | 337 kts | 323° |
| 2026-04-16 13:11 | 37.34798 | 31.34036 | 14063 ft | 331 kts | 323° |
| 2026-04-16 13:11 | 37.36585 | 31.32268 | 13808 ft | 324 kts | 323° |
| 2026-04-16 13:11 | 37.38389 | 31.30615 | 13519 ft | 317 kts | 329° |
| 2026-04-16 13:12 | 37.40214 | 31.29120 | 13232 ft | 313 kts | 321° |
| 2026-04-16 13:12 | 37.41541 | 31.26995 | 13084 ft | 308 kts | 298° |
| 2026-04-16 13:12 | 37.42141 | 31.24489 | 13051 ft | 305 kts | 279° |
| 2026-04-16 13:12 | 37.42336 | 31.21829 | 12817 ft | 305 kts | 277° |
| 2026-04-16 13:13 | 37.42511 | 31.19180 | 12578 ft | 304 kts | 277° |
| 2026-04-16 13:13 | 37.42680 | 31.16534 | 12347 ft | 303 kts | 277° |
| 2026-04-16 13:13 | 37.42847 | 31.13896 | 12117 ft | 302 kts | 276° |
| 2026-04-16 13:13 | 37.43015 | 31.11269 | 11886 ft | 301 kts | 277° |
| 2026-04-16 13:14 | 37.43186 | 31.08646 | 11660 ft | 300 kts | 276° |
| 2026-04-16 13:14 | 37.43358 | 31.06031 | 11433 ft | 300 kts | 276° |
| 2026-04-16 13:14 | 37.43527 | 31.03452 | 11210 ft | 300 kts | 276° |
| 2026-04-16 13:14 | 37.43698 | 31.00844 | 10987 ft | 299 kts | 276° |
| 2026-04-16 13:15 | 37.43868 | 30.98253 | 10761 ft | 295 kts | 276° |
| 2026-04-16 13:15 | 37.43757 | 30.95698 | 10541 ft | 293 kts | 257° |
| 2026-04-16 13:15 | 37.42954 | 30.93371 | 10316 ft | 291 kts | 236° |
| 2026-04-16 13:15 | 37.41553 | 30.91526 | 9926 ft | 296 kts | 215° |
| 2026-04-16 13:16 | 37.39695 | 30.90399 | 9521 ft | 299 kts | 198° |
| 2026-04-16 13:16 | 37.37713 | 30.89564 | 9105 ft | 302 kts | 198° |
| 2026-04-16 13:16 | 37.35757 | 30.88737 | 8693 ft | 297 kts | 198° |
| 2026-04-16 13:16 | 37.33824 | 30.87916 | 8289 ft | 290 kts | 198° |
| 2026-04-16 13:17 | 37.31922 | 30.87104 | 7900 ft | 287 kts | 198° |
| 2026-04-16 13:17 | 37.30015 | 30.86418 | 7531 ft | 284 kts | 191° |
| 2026-04-16 13:17 | 37.28086 | 30.85918 | 7170 ft | 283 kts | 191° |
| 2026-04-16 13:17 | 37.26166 | 30.85419 | 6835 ft | 280 kts | 191° |
| 2026-04-16 13:18 | 37.24273 | 30.84925 | 6521 ft | 275 kts | 191° |
| 2026-04-16 13:18 | 37.22415 | 30.84440 | 6201 ft | 270 kts | 191° |
| 2026-04-16 13:18 | 37.20620 | 30.83972 | 5870 ft | 263 kts | 191° |
| 2026-04-16 13:18 | 37.18849 | 30.83510 | 5509 ft | 256 kts | 191° |
| 2026-04-16 13:19 | 37.17489 | 30.83155 | 5207 ft | 251 kts | 190° |
| 2026-04-16 13:19 | 37.15781 | 30.82741 | 4803 ft | 246 kts | 187° |
| 2026-04-16 13:19 | 37.14081 | 30.82496 | 4444 ft | 243 kts | 183° |
| 2026-04-16 13:19 | 37.12415 | 30.82330 | 4164 ft | 239 kts | 184° |
| 2026-04-16 13:20 | 37.10779 | 30.82122 | 3871 ft | 234 kts | 185° |
| 2026-04-16 13:20 | 37.09193 | 30.81903 | 3569 ft | 228 kts | 186° |
| 2026-04-16 13:20 | 37.07670 | 30.81692 | 3289 ft | 213 kts | 186° |
| 2026-04-16 13:20 | 37.06243 | 30.81495 | 3044 ft | 198 kts | 186° |
| 2026-04-16 13:21 | 37.04931 | 30.81314 | 2785 ft | 183 kts | 186° |
| 2026-04-16 13:21 | 37.03709 | 30.81146 | 2550 ft | 172 kts | 186° |
| 2026-04-16 13:21 | 37.02546 | 30.80986 | 2335 ft | 164 kts | 186° |
| 2026-04-16 13:21 | 37.01434 | 30.80833 | 2141 ft | 155 kts | 186° |
| 2026-04-16 13:22 | 37.00405 | 30.80692 | 1943 ft | 145 kts | 186° |
| 2026-04-16 13:22 | 36.99428 | 30.80558 | 1753 ft | 141 kts | 186° |
| 2026-04-16 13:22 | 36.98454 | 30.80424 | 1567 ft | 140 kts | 187° |
| 2026-04-16 13:22 | 36.97498 | 30.80292 | 1397 ft | 137 kts | 186° |
| 2026-04-16 13:23 | 36.96557 | 30.80162 | 1160 ft | 137 kts | 184° |
| 2026-04-16 13:23 | 36.95622 | 30.80035 | 1009 ft | 134 kts | 185° |
| 2026-04-16 13:23 | 36.94701 | 30.79910 | 817 ft | 132 kts | 186° |
| 2026-04-16 13:23 | 36.93789 | 30.79789 | 626 ft | 132 kts | 187° |
| 2026-04-16 13:24 | 36.92883 | 30.79659 | 458 ft | 133 kts | 187° |
| 2026-04-16 13:24 | 36.91969 | 30.79536 | 297 ft | 131 kts | 185° |
| 2026-04-16 13:24 | 36.91065 | 30.79408 | 182 ft | 125 kts | 185° |
| 2026-04-16 13:24 | 36.90351 | 30.79310 | 178 ft | 79 kts | 186° |
| 2026-04-16 13:25 | 36.89955 | 30.79255 | 178 ft | 45 kts | 186° |
| 2026-04-16 13:25 | 36.89733 | 30.79227 | 180 ft | 24 kts | 185° |
| 2026-04-16 13:25 | 36.89600 | 30.79237 | 178 ft | 15 kts | 169° |
| 2026-04-16 13:25 | 36.89519 | 30.79269 | 178 ft | 13 kts | 157° |
| 2026-04-16 13:26 | 36.89440 | 30.79312 | 178 ft | 12 kts | 156° |
| 2026-04-16 13:26 | 36.89401 | 30.79370 | 177 ft | 10 kts | 78° |
| 2026-04-16 13:26 | 36.89471 | 30.79410 | 177 ft | 13 kts | 7° |
| 2026-04-16 13:26 | 36.89579 | 30.79425 | 177 ft | 21 kts | 7° |
| 2026-04-16 13:27 | 36.89727 | 30.79445 | 176 ft | 21 kts | 6° |
| 2026-04-16 13:27 | 36.89882 | 30.79466 | 176 ft | 24 kts | 6° |
| 2026-04-16 13:27 | 36.90044 | 30.79489 | 176 ft | 25 kts | 6° |
| 2026-04-16 13:27 | 36.90220 | 30.79513 | 176 ft | 25 kts | 6° |
| 2026-04-16 13:28 | 36.90382 | 30.79535 | 176 ft | 23 kts | 6° |
| 2026-04-16 13:28 | 36.90539 | 30.79555 | 176 ft | 24 kts | 6° |
| 2026-04-16 13:28 | 36.90712 | 30.79580 | 176 ft | 25 kts | 6° |
| 2026-04-16 13:28 | 36.90853 | 30.79598 | 176 ft | 15 kts | 6° |
| 2026-04-16 13:29 | 36.90906 | 30.79651 | 176 ft | 11 kts | 86° |
| 2026-04-16 13:29 | 36.90898 | 30.79763 | 176 ft | 13 kts | 96° |
| 2026-04-16 13:29 | 36.90889 | 30.79867 | 176 ft | 12 kts | 95° |
| 2026-04-16 13:29 | 36.90912 | 30.79926 | 176 ft | 8 kts | 13° |
| 2026-04-16 13:30 | 36.90959 | 30.79935 | 175 ft | 6 kts | 10° |
| 2026-04-16 13:30 | 36.90969 | 30.79963 | 175 ft | 5 kts | 86° |
| 2026-04-16 13:30 | 36.90966 | 30.80006 | 175 ft | 6 kts | 96° |
| 2026-04-16 13:30 | 36.90964 | 30.80030 | 175 ft | 0 kts | 96° |